Time;durP1;ratioP1;P1;durP2;ratioP2;P2;SDS_P1;SDS_P2;PMS_P1;PMS_P2;Temp;Humidity;BMP_temperature;BMP_pressure;BME280_temperature;BME280_humidity;BME280_pressure;Samples;Min_cycle;Max_cycle;Signal;HPM_P1;HPM_P2
2022/01/18 00:00:03;;;;;;;34.83;5.82;;;;;;;8.32;84.33;103862.16;5115500;28;20070;-69
2022/01/18 00:02:28;;;;;;;39.20;6.72;;;;;;;8.41;83.44;103847.97;5116091;28;20040;-69
2022/01/18 00:04:53;;;;;;;51.88;7.03;;;;;;;8.21;84.26;103862.25;5115219;28;20097;-69
2022/01/18 00:07:19;;;;;;;50.10;5.65;;;;;;;8.26;84.15;103855.53;5115347;28;20123;-69
2022/01/18 00:09:45;;;;;;;44.63;7.40;;;;;;;8.14;84.40;103855.75;5099535;28;20040;-71
2022/01/18 00:18:04;;;;;;;56.70;6.90;;;;;;;8.04;84.77;103874.44;5069242;28;20037;-71
2022/01/18 00:23:15;;;;;;;51.58;7.20;;;;;;;8.15;84.23;103890.44;5032588;28;20049;-69
2022/01/18 00:25:44;;;;;;;39.60;6.25;;;;;;;8.02;84.51;103886.28;5048526;28;20435;-71
2022/01/18 00:28:10;;;;;;;52.30;6.65;;;;;;;7.89;84.85;103881.13;5036377;28;20082;-69
2022/01/18 00:35:40;;;;;;;49.08;7.82;;;;;;;7.73;85.45;103883.44;5052424;28;20036;-69
2022/01/18 00:38:15;;;;;;;50.97;8.35;;;;;;;7.71;85.43;103888.06;5051689;28;20049;-70
2022/01/18 00:40:40;;;;;;;53.13;6.72;;;;;;;7.48;86.18;103890.06;5050693;28;20048;-69
2022/01/18 00:43:06;;;;;;;56.38;6.72;;;;;;;7.48;85.93;103884.69;5051633;28;20049;-68
2022/01/18 00:45:31;;;;;;;51.50;8.07;;;;;;;7.55;85.66;103893.88;5051458;28;20454;-69
2022/01/18 00:47:57;;;;;;;50.97;6.57;;;;;;;7.32;86.49;103900.34;5061775;28;20040;-70
2022/01/18 00:50:26;;;;;;;38.08;5.32;;;;;;;7.39;86.31;103898.84;5080481;28;20074;-70
2022/01/18 00:52:52;;;;;;;53.05;7.38;;;;;;;7.33;86.67;103896.69;5094075;28;20075;-69
2022/01/18 00:55:18;;;;;;;49.67;7.43;;;;;;;7.33;86.40;103898.53;5093592;28;20059;-70
2022/01/18 00:57:44;;;;;;;45.05;7.50;;;;;;;7.17;86.82;103888.28;5094031;28;20056;-71
2022/01/18 01:00:09;;;;;;;54.22;6.88;;;;;;;7.17;86.52;103890.09;5093859;28;20174;-71
2022/01/18 01:02:35;;;;;;;39.08;5.50;;;;;;;6.98;87.40;103885.41;5094139;28;20023;-69
2022/01/18 01:05:00;;;;;;;44.03;6.82;;;;;;;7.08;86.92;103891.69;5093569;28;20044;-70
2022/01/18 01:07:26;;;;;;;56.13;6.97;;;;;;;7.17;86.48;103884.75;5093799;28;20104;-69
2022/01/18 01:09:53;;;;;;;40.85;5.13;;;;;;;7.08;86.29;103881.00;5093301;28;20109;-68
2022/01/18 01:12:20;;;;;;;52.95;7.68;;;;;;;7.02;86.57;103879.69;5093445;28;20047;-70
2022/01/18 01:14:48;;;;;;;50.35;6.20;;;;;;;6.87;86.99;103877.44;5094045;28;20039;-70
2022/01/18 01:46:29;;;;;;;26.75;5.40;;;;;;;6.88;86.73;103890.69;5077868;28;20040;-69
2022/01/18 01:48:56;;;;;;;37.17;5.13;;;;;;;6.67;87.54;103888.91;5093323;28;20108;-71
2022/01/18 01:51:29;;;;;;;34.08;5.55;;;;;;;6.91;86.78;103885.09;5074838;28;20044;-71
2022/01/18 01:53:56;;;;;;;28.85;4.95;;;;;;;6.80;86.66;103879.75;5093046;28;20475;-70
2022/01/18 01:56:21;;;;;;;46.22;5.25;;;;;;;6.93;86.47;103888.50;5093150;28;20055;-70
2022/01/18 01:58:46;;;;;;;36.03;5.60;;;;;;;6.91;86.37;103894.94;5074615;28;20028;-70
2022/01/18 02:01:12;;;;;;;39.13;5.22;;;;;;;7.02;85.95;103895.72;5092698;28;20476;-68
2022/01/18 02:03:37;;;;;;;37.72;6.47;;;;;;;7.15;85.39;103884.03;5092608;28;20486;-70
2022/01/18 02:06:03;;;;;;;41.22;6.07;;;;;;;7.06;85.43;103889.16;5092871;28;20032;-69
2022/01/18 02:08:29;;;;;;;32.30;6.32;;;;;;;7.01;85.72;103901.22;5092891;28;20118;-70
2022/01/18 02:10:54;;;;;;;29.52;6.63;;;;;;;6.89;86.31;103892.38;5092516;28;20032;-69
2022/01/18 02:13:20;;;;;;;23.60;4.90;;;;;;;6.76;86.56;103888.19;5092457;28;20051;-70
2022/01/18 02:23:55;;;;;;;42.08;5.63;;;;;;;7.00;85.89;103910.19;5113152;28;20114;-69
2022/01/18 02:26:20;;;;;;;47.15;7.05;;;;;;;6.98;85.95;103902.31;5113265;28;20137;-69
2022/01/18 02:28:46;;;;;;;27.73;6.63;;;;;;;7.01;86.10;103898.53;5097541;28;20040;-69
2022/01/18 02:31:11;;;;;;;58.47;8.43;;;;;;;6.82;86.29;103887.69;5092599;28;20046;-70
2022/01/18 02:33:37;;;;;;;49.38;6.35;;;;;;;6.56;87.69;103881.78;5092546;28;20214;-69
2022/01/18 02:36:07;;;;;;;39.38;6.70;;;;;;;6.69;87.60;103882.47;5092555;28;20032;-69
2022/01/18 02:38:32;;;;;;;46.58;6.00;;;;;;;6.70;87.38;103886.00;5092755;28;20032;-70
2022/01/18 02:40:58;;;;;;;39.22;6.57;;;;;;;6.67;87.95;103886.25;5092334;28;20044;-71
2022/01/18 02:46:07;;;;;;;36.30;7.13;;;;;;;6.91;86.86;103887.78;5092103;28;20063;-69
2022/01/18 02:48:32;;;;;;;56.60;9.85;;;;;;;6.82;87.20;103888.50;5092424;28;20028;-71
2022/01/18 02:50:58;;;;;;;67.35;9.48;;;;;;;7.05;86.59;103890.16;5092281;28;20123;-69
2022/01/18 02:53:23;;;;;;;41.58;7.18;;;;;;;7.19;85.75;103889.00;5092633;28;20028;-69
2022/01/18 02:55:54;;;;;;;47.83;8.10;;;;;;;7.23;85.88;103882.41;5091886;28;20048;-71
2022/01/18 02:58:32;;;;;;;62.95;9.15;;;;;;;7.29;85.89;103887.25;5092475;28;20048;-69
2022/01/18 03:03:35;;;;;;;63.97;8.68;;;;;;;7.41;85.55;103888.03;5092204;28;20047;-70
2022/01/18 03:06:02;;;;;;;44.45;7.30;;;;;;;7.41;85.46;103882.69;5096361;28;20028;-70
2022/01/18 03:08:30;;;;;;;52.35;7.28;;;;;;;7.25;86.22;103887.63;5095197;28;20138;-70
2022/01/18 03:10:56;;;;;;;56.80;9.60;;;;;;;7.26;86.29;103884.81;5096174;28;20357;-71
2022/01/18 03:13:22;;;;;;;52.40;8.15;;;;;;;6.97;87.53;103892.59;5095827;28;20102;-69
2022/01/18 03:15:47;;;;;;;52.47;8.93;;;;;;;6.97;88.11;103889.06;5096108;28;20201;-70
2022/01/18 03:18:13;;;;;;;57.03;8.85;;;;;;;6.85;88.83;103884.75;5095611;28;20476;-70
2022/01/18 03:20:39;;;;;;;58.58;8.30;;;;;;;7.23;87.16;103892.25;5096427;28;20057;-70
2022/01/18 03:23:09;;;;;;;61.00;8.75;;;;;;;7.33;86.52;103893.19;5115816;28;20547;-70
2022/01/18 03:28:04;;;;;;;51.90;9.15;;;;;;;7.38;86.32;103905.19;5095989;28;20043;-70
2022/01/18 03:30:54;;;;;;;53.25;8.00;;;;;;;7.35;86.60;103902.75;5095767;28;20040;-70
2022/01/18 03:33:22;;;;;;;24.40;6.68;;;;;;;7.34;86.63;103910.91;5071016;28;20036;-70
2022/01/18 03:35:50;;;;;;;54.25;8.02;;;;;;;7.35;86.32;103913.44;5096221;28;20039;-70
2022/01/18 03:38:16;;;;;;;45.67;7.55;;;;;;;7.37;86.53;103908.00;5095866;28;20039;-69
2022/01/18 03:40:42;;;;;;;34.95;7.18;;;;;;;7.21;87.10;103907.56;5095466;28;20044;-69
2022/01/18 03:43:11;;;;;;;27.83;6.18;;;;;;;7.10;87.28;103921.81;5095733;28;20047;-70
2022/01/18 03:45:41;;;;;;;33.03;6.57;;;;;;;7.17;87.32;103924.84;5095260;28;20032;-70
2022/01/18 03:48:17;;;;;;;30.08;7.20;;;;;;;7.04;87.75;103923.19;5095490;28;20028;-69
2022/01/18 03:50:43;;;;;;;25.23;6.18;;;;;;;7.01;88.61;103917.25;5096145;28;20345;-70
2022/01/18 03:53:10;;;;;;;30.70;5.82;;;;;;;6.93;89.22;103919.72;5095363;28;20039;-69
2022/01/18 03:55:36;;;;;;;44.33;7.35;;;;;;;7.04;88.40;103919.66;5094942;28;20052;-70
2022/01/18 03:58:01;;;;;;;24.63;5.97;;;;;;;7.05;88.02;103924.06;5095210;28;20055;-70
2022/01/18 04:00:28;;;;;;;29.67;6.57;;;;;;;6.90;88.49;103922.63;5095105;28;20032;-69
2022/01/18 04:02:54;;;;;;;30.20;6.75;;;;;;;6.94;88.42;103926.75;5087655;28;20028;-68
2022/01/18 04:05:20;;;;;;;38.60;6.85;;;;;;;6.85;89.10;103925.69;5095637;28;20111;-69
2022/01/18 04:07:46;;;;;;;31.88;7.07;;;;;;;6.99;89.30;103938.78;5095056;28;20119;-70
2022/01/18 04:10:13;;;;;;;36.58;6.60;;;;;;;6.70;90.20;103942.13;5095458;28;20304;-69
2022/01/18 04:12:39;;;;;;;25.80;7.38;;;;;;;7.03;88.76;103942.03;5094948;28;20077;-68
2022/01/18 04:15:09;;;;;;;33.38;7.68;;;;;;;7.06;88.90;103942.63;5094269;28;20031;-68
2022/01/18 04:28:43;;;;;;;30.08;9.55;;;;;;;6.95;89.08;103953.38;5114652;28;20081;-70
2022/01/18 04:31:10;;;;;;;21.80;6.28;;;;;;;6.98;88.83;103954.91;5114860;28;20040;-70
2022/01/18 04:33:38;;;;;;;39.22;6.95;;;;;;;7.11;88.28;103953.78;5096888;28;20052;-69
2022/01/18 04:36:05;;;;;;;21.83;6.53;;;;;;;7.07;88.22;103946.16;5114686;28;20031;-68
2022/01/18 04:38:30;;;;;;;28.40;6.22;;;;;;;7.10;88.09;103945.91;5114831;28;20047;-69
2022/01/18 04:41:04;;;;;;;31.10;6.32;;;;;;;7.05;87.66;103948.97;5114315;28;20132;-68
2022/01/18 04:48:47;;;;;;;28.92;6.45;;;;;;;6.99;88.43;103937.91;5094200;28;20128;-70
2022/01/18 04:51:13;;;;;;;31.92;6.03;;;;;;;6.99;88.33;103932.56;5093837;28;20437;-67
2022/01/18 04:53:49;;;;;;;24.95;6.93;;;;;;;7.00;88.53;103928.91;5076523;28;20783;-69
2022/01/18 04:56:18;;;;;;;22.65;5.63;;;;;;;6.95;88.59;103936.47;5093930;28;20471;-70
2022/01/18 04:58:44;;;;;;;36.55;6.72;;;;;;;7.14;87.82;103933.97;5093990;28;20551;-69
2022/01/18 05:01:11;;;;;;;22.70;5.60;;;;;;;7.08;87.99;103926.47;5089049;28;20040;-70
2022/01/18 05:03:37;;;;;;;34.47;6.15;;;;;;;7.15;87.81;103933.00;5073257;28;20048;-70
2022/01/18 05:06:10;;;;;;;30.10;7.90;;;;;;;6.98;88.33;103937.06;5073070;28;20040;-69
2022/01/18 05:08:37;;;;;;;26.48;6.55;;;;;;;6.96;88.55;103943.50;5079349;28;20028;-69
2022/01/18 05:11:03;;;;;;;23.63;5.95;;;;;;;7.02;88.42;103941.19;5093305;28;20089;-70
2022/01/18 05:16:29;;;;;;;20.83;6.57;;;;;;;6.84;89.11;103937.34;5092588;28;20170;-68
2022/01/18 05:19:09;;;;;;;19.13;6.32;;;;;;;6.88;89.02;103937.94;5093531;28;20089;-69
2022/01/18 05:22:56;;;;;;;19.88;6.38;;;;;;;6.81;88.76;103937.59;5094027;28;20052;-69
2022/01/18 05:24:27;;;;;;;26.90;6.47;;;;;;;6.91;88.59;103935.88;5093629;28;20040;-70
2022/01/18 05:26:54;;;;;;;29.33;6.53;;;;;;;6.77;89.26;103936.16;5093071;28;20475;-70
2022/01/18 05:29:20;;;;;;;19.17;6.85;;;;;;;6.56;90.14;103947.72;5094209;28;20012;-70
2022/01/18 05:31:46;;;;;;;14.30;6.78;;;;;;;6.53;90.18;103951.47;5111235;28;20039;-68
2022/01/18 05:34:12;;;;;;;16.20;4.80;;;;;;;6.35;90.40;103950.28;5110111;28;20032;-68
2022/01/18 05:36:37;;;;;;;24.42;5.47;;;;;;;6.60;89.74;103958.06;5092697;28;20028;-67
2022/01/18 05:39:04;;;;;;;14.63;5.68;;;;;;;6.72;89.36;103954.38;5093229;28;20040;-70
2022/01/18 05:41:29;;;;;;;20.35;6.28;;;;;;;6.87;88.11;103945.13;5093788;28;20118;-68
2022/01/18 05:43:55;;;;;;;13.13;5.55;;;;;;;6.67;88.88;103947.69;5093183;28;20032;-69
2022/01/18 05:46:20;;;;;;;17.33;6.03;;;;;;;6.44;89.50;103946.03;5088868;28;20090;-69
2022/01/18 05:48:46;;;;;;;13.13;5.47;;;;;;;6.45;89.65;103937.88;5090128;28;20024;-69
2022/01/18 05:51:12;;;;;;;11.35;5.30;;;;;;;6.53;89.19;103938.13;5093224;28;20128;-70
2022/01/18 05:53:39;;;;;;;10.90;5.63;;;;;;;6.56;88.63;103939.72;5092614;28;20024;-69
2022/01/18 05:56:06;;;;;;;16.55;5.85;;;;;;;6.74;88.13;103935.56;5085285;28;20131;-69
2022/01/18 05:58:32;;;;;;;12.43;6.22;;;;;;;6.88;87.42;103943.28;5084251;28;20036;-71
2022/01/18 06:00:57;;;;;;;13.02;5.40;;;;;;;6.73;88.15;103937.38;5087891;28;20051;-69
2022/01/18 06:03:31;;;;;;;14.10;5.95;;;;;;;6.47;88.29;103943.97;5088053;28;20044;-71
2022/01/18 06:08:42;;;;;;;13.13;6.20;;;;;;;6.76;87.80;103934.44;5087628;28;20043;-69
2022/01/18 06:11:08;;;;;;;14.55;6.45;;;;;;;6.91;87.19;103943.91;5087961;28;20042;-70
2022/01/18 06:13:33;;;;;;;17.23;7.00;;;;;;;6.89;87.07;103942.31;5085531;28;20028;-69
2022/01/18 06:15:59;;;;;;;12.95;5.80;;;;;;;6.75;87.83;103955.94;5087560;28;20044;-69
2022/01/18 06:18:24;;;;;;;14.10;5.80;;;;;;;6.73;87.70;103955.22;5087790;28;20048;-70
2022/01/18 06:20:49;;;;;;;10.60;5.03;;;;;;;6.60;88.40;103951.84;5088653;28;20073;-70
2022/01/18 06:23:15;;;;;;;10.55;5.30;;;;;;;6.63;88.70;103955.13;5073064;28;20048;-70
2022/01/18 06:25:41;;;;;;;10.30;4.82;;;;;;;6.57;88.43;103960.94;5088002;28;20028;-71
2022/01/18 06:28:07;;;;;;;15.63;6.70;;;;;;;6.82;87.84;103959.84;5053875;28;20044;-70
2022/01/18 06:30:33;;;;;;;10.48;5.75;;;;;;;6.83;87.80;103954.38;5090574;28;20047;-68
2022/01/18 06:32:58;;;;;;;10.00;5.82;;;;;;;6.83;88.03;103950.84;5103044;28;20051;-69
2022/01/18 06:35:24;;;;;;;16.92;6.95;;;;;;;6.94;87.02;103959.69;5093028;28;20031;-70
2022/01/18 06:37:49;;;;;;;21.48;7.28;;;;;;;7.05;87.35;103964.16;5092581;28;20036;-71
2022/01/18 06:40:15;;;;;;;18.80;7.05;;;;;;;7.02;87.37;103961.72;5094820;28;20036;-70
2022/01/18 06:42:40;;;;;;;13.05;6.65;;;;;;;6.99;87.37;103965.50;5096201;28;20115;-70
2022/01/18 06:45:07;;;;;;;17.42;6.53;;;;;;;7.04;87.07;103967.78;5093198;28;20532;-70
2022/01/18 06:47:33;;;;;;;12.20;5.45;;;;;;;7.07;86.99;103976.44;5099915;28;20020;-69
2022/01/18 06:49:58;;;;;;;15.23;5.60;;;;;;;6.99;87.14;103968.19;5108916;28;20047;-70
2022/01/18 06:52:24;;;;;;;18.13;6.97;;;;;;;6.98;87.07;103968.28;5100666;28;20047;-69
2022/01/18 06:54:49;;;;;;;13.35;6.32;;;;;;;7.01;87.65;103968.06;5096208;28;20070;-70
2022/01/18 06:57:15;;;;;;;15.75;5.95;;;;;;;7.01;86.90;103974.25;5100665;28;20036;-69
2022/01/18 06:59:40;;;;;;;13.85;5.43;;;;;;;6.96;86.74;103976.44;5101287;28;20468;-70
2022/01/18 07:02:06;;;;;;;10.70;5.03;;;;;;;6.97;87.14;103972.81;5102154;28;20111;-69
2022/01/18 07:04:32;;;;;;;15.82;5.18;;;;;;;7.09;86.85;103987.81;5100721;28;20050;-70
2022/01/18 07:06:57;;;;;;;13.40;6.15;;;;;;;7.14;86.31;103979.44;5083833;28;20038;-70
2022/01/18 07:09:23;;;;;;;14.60;6.40;;;;;;;7.06;86.47;103984.56;5094153;28;20036;-70
2022/01/18 07:11:54;;;;;;;13.95;6.15;;;;;;;6.99;86.66;103986.03;5095953;28;20036;-70
2022/01/18 07:14:19;;;;;;;13.43;6.07;;;;;;;7.04;86.14;103987.38;5101446;28;20062;-69
2022/01/18 07:16:45;;;;;;;12.95;5.88;;;;;;;7.15;85.98;103999.88;5102792;28;20036;-69
2022/01/18 07:19:10;;;;;;;13.63;7.15;;;;;;;7.15;85.82;103999.00;5108067;28;20406;-69
2022/01/18 07:21:36;;;;;;;16.10;6.72;;;;;;;7.12;85.71;103989.41;5116274;28;20035;-69
2022/01/18 07:24:14;;;;;;;14.68;6.28;;;;;;;6.96;86.62;103995.16;5098368;28;20055;-70
2022/01/18 07:26:39;;;;;;;14.88;6.32;;;;;;;7.04;86.51;103995.38;5116830;28;20028;-70
2022/01/18 07:29:04;;;;;;;11.07;5.53;;;;;;;6.93;86.53;103997.22;5115454;28;20077;-71
2022/01/18 07:31:30;;;;;;;12.00;5.40;;;;;;;6.91;86.70;104004.53;5102625;28;20130;-70
2022/01/18 07:33:55;;;;;;;11.27;5.25;;;;;;;7.00;86.39;104009.13;5116260;28;20035;-70
2022/01/18 07:36:20;;;;;;;13.60;5.70;;;;;;;7.05;86.07;104006.94;5115751;28;20111;-69
2022/01/18 07:38:46;;;;;;;13.13;6.40;;;;;;;7.23;85.47;103999.22;5116113;28;20110;-70
2022/01/18 07:41:12;;;;;;;15.80;5.95;;;;;;;7.27;85.33;104003.34;5115799;28;20538;-70
2022/01/18 07:43:40;;;;;;;17.10;6.57;;;;;;;7.16;85.39;104014.06;5103049;28;20040;-69
2022/01/18 07:46:05;;;;;;;16.63;6.55;;;;;;;7.07;85.65;104013.00;5094967;28;20403;-69
2022/01/18 07:48:30;;;;;;;14.23;6.47;;;;;;;6.89;86.66;104019.84;5095182;28;20032;-70
2022/01/18 07:50:57;;;;;;;14.32;6.30;;;;;;;6.96;86.28;104015.69;5094994;28;20027;-70
2022/01/18 07:53:22;;;;;;;13.05;5.97;;;;;;;7.08;86.43;104017.38;5101195;28;20413;-70
2022/01/18 07:55:48;;;;;;;12.90;5.68;;;;;;;7.02;85.81;104023.22;5099986;28;20084;-70
2022/01/18 07:58:13;;;;;;;14.75;5.90;;;;;;;6.88;86.16;104020.78;5102229;28;20043;-70
2022/01/18 08:00:39;;;;;;;14.65;5.50;;;;;;;7.09;85.74;104017.22;5099030;28;20024;-70
2022/01/18 08:03:04;;;;;;;19.75;6.45;;;;;;;7.20;85.64;104019.03;5101253;28;20022;-69
2022/01/18 08:05:30;;;;;;;14.77;7.65;;;;;;;7.29;85.20;104021.00;5097477;28;20103;-70
2022/01/18 08:07:55;;;;;;;23.90;8.05;;;;;;;7.26;85.37;104012.34;5097957;28;20032;-70
2022/01/18 08:10:21;;;;;;;14.48;6.07;;;;;;;7.33;85.10;104016.22;5086445;28;20044;-70
2022/01/18 08:12:46;;;;;;;15.40;6.40;;;;;;;7.29;85.16;104010.28;5094591;28;20379;-69
2022/01/18 08:15:20;;;;;;;17.77;6.93;;;;;;;7.38;84.93;104016.69;5088666;28;20040;-71
2022/01/18 08:17:48;;;;;;;16.65;7.45;;;;;;;7.39;84.74;104013.03;5091203;28;20070;-70
2022/01/18 08:20:14;;;;;;;14.90;6.13;;;;;;;7.46;84.86;104015.09;5093475;28;20036;-70
2022/01/18 08:22:43;;;;;;;15.85;7.20;;;;;;;7.44;84.96;104009.00;5092193;28;20024;-70
2022/01/18 08:25:13;;;;;;;15.55;6.55;;;;;;;7.53;84.63;104002.88;5098188;28;20036;-71
2022/01/18 08:27:39;;;;;;;13.68;6.07;;;;;;;7.63;84.39;104005.63;5099672;28;20115;-70
2022/01/18 08:30:10;;;;;;;13.88;6.65;;;;;;;7.65;84.44;104009.03;5101801;28;20042;-70
2022/01/18 08:32:36;;;;;;;22.02;7.38;;;;;;;7.70;84.18;104005.00;5103574;28;20108;-70
2022/01/18 08:35:02;;;;;;;13.23;7.53;;;;;;;7.72;84.27;104008.41;5101531;28;20476;-71
2022/01/18 08:37:27;;;;;;;14.02;6.72;;;;;;;7.74;84.16;103995.72;5101751;28;20042;-71
2022/01/18 08:39:53;;;;;;;21.30;8.30;;;;;;;7.57;84.75;104001.66;5099202;28;20407;-70
2022/01/18 08:42:18;;;;;;;21.02;6.30;;;;;;;7.69;84.33;104014.00;5099488;28;20035;-70
2022/01/18 08:44:44;;;;;;;19.65;7.22;;;;;;;7.78;84.05;103999.84;5098989;28;20028;-71
2022/01/18 08:47:11;;;;;;;12.27;6.85;;;;;;;7.81;83.99;104007.63;5097536;28;20397;-70
2022/01/18 08:49:37;;;;;;;24.15;7.70;;;;;;;7.82;83.97;104003.94;5098126;28;20032;-70
2022/01/18 08:52:03;;;;;;;16.92;6.78;;;;;;;7.92;84.20;103999.53;5099185;28;20059;-70
2022/01/18 08:54:29;;;;;;;15.32;6.80;;;;;;;7.91;83.82;104008.53;5100515;28;20487;-70
2022/01/18 08:56:54;;;;;;;14.52;6.80;;;;;;;7.93;83.89;104001.22;5099583;28;20085;-69
2022/01/18 08:59:20;;;;;;;19.80;7.10;;;;;;;7.92;83.58;104010.22;5101815;28;20035;-70
2022/01/18 09:01:45;;;;;;;12.55;5.15;;;;;;;7.80;83.60;104002.41;5088703;28;20032;-69
2022/01/18 09:04:10;;;;;;;14.52;6.05;;;;;;;7.93;83.14;104003.91;5098586;28;20035;-70
2022/01/18 09:06:37;;;;;;;14.25;5.30;;;;;;;7.93;82.71;104003.91;5100065;28;20024;-70
2022/01/18 09:09:05;;;;;;;16.75;6.80;;;;;;;7.92;83.22;104006.72;5096091;28;20091;-70
2022/01/18 09:11:31;;;;;;;14.75;6.72;;;;;;;8.00;82.96;104014.94;5100061;28;20016;-70
2022/01/18 09:13:56;;;;;;;15.32;6.70;;;;;;;8.05;82.98;104014.53;5101004;28;20043;-69
2022/01/18 09:16:22;;;;;;;13.80;5.72;;;;;;;7.97;83.49;104012.53;5098892;28;20036;-69
2022/01/18 09:18:50;;;;;;;15.20;5.65;;;;;;;8.04;83.19;104011.00;5099894;28;20497;-69
2022/01/18 09:21:16;;;;;;;12.90;6.10;;;;;;;7.98;83.22;104006.16;5097591;28;20060;-71
2022/01/18 09:23:42;;;;;;;12.07;5.32;;;;;;;8.02;82.77;104012.13;5094624;28;20036;-70
2022/01/18 09:26:08;;;;;;;13.85;4.90;;;;;;;8.04;83.10;104020.91;5097582;28;20039;-70
2022/01/18 09:28:34;;;;;;;10.15;5.50;;;;;;;8.17;82.63;104013.50;5096452;28;20399;-70
2022/01/18 09:31:00;;;;;;;17.95;5.50;;;;;;;8.21;82.68;104015.78;5097183;28;20158;-70
2022/01/18 09:33:25;;;;;;;8.18;4.45;;;;;;;8.19;82.75;104017.75;5096499;28;20028;-70
2022/01/18 09:35:51;;;;;;;13.05;5.85;;;;;;;8.21;82.69;104014.94;5098245;28;20426;-70
2022/01/18 09:38:16;;;;;;;11.00;5.45;;;;;;;8.25;82.22;104027.13;5091125;28;20108;-70
2022/01/18 09:40:44;;;;;;;10.43;4.60;;;;;;;8.25;82.19;104014.56;5093632;28;20086;-69
2022/01/18 09:43:13;;;;;;;10.73;5.07;;;;;;;8.21;81.93;104015.78;5092990;28;20047;-70
2022/01/18 09:45:41;;;;;;;10.85;4.95;;;;;;;8.16;82.07;104026.03;5092639;28;20455;-70
2022/01/18 09:48:08;;;;;;;9.38;5.43;;;;;;;8.20;81.97;104018.56;5087713;28;20471;-71
2022/01/18 09:50:35;;;;;;;10.77;5.53;;;;;;;8.16;81.52;104018.00;5089277;28;20028;-69
2022/01/18 09:53:01;;;;;;;12.63;5.40;;;;;;;8.30;81.07;104024.88;5087956;28;20032;-70
2022/01/18 09:55:29;;;;;;;12.27;4.57;;;;;;;8.26;81.09;104029.66;5085252;28;20131;-69
2022/01/18 09:57:57;;;;;;;14.40;5.60;;;;;;;8.27;80.86;104025.16;5088450;28;20032;-70
2022/01/18 10:00:25;;;;;;;9.65;5.35;;;;;;;8.42;80.46;104030.03;5088101;28;20080;-70
2022/01/18 10:02:50;;;;;;;9.80;5.30;;;;;;;8.54;80.12;104028.97;5088534;28;20032;-70
2022/01/18 10:05:18;;;;;;;11.85;5.60;;;;;;;8.46;80.66;104034.16;5089150;28;20027;-71
2022/01/18 10:07:43;;;;;;;13.18;6.10;;;;;;;8.52;80.46;104032.75;5087754;28;20132;-70
2022/01/18 10:10:09;;;;;;;11.27;6.25;;;;;;;8.33;81.28;104032.66;5074995;28;20097;-70
2022/01/18 10:12:34;;;;;;;10.70;5.53;;;;;;;8.23;81.49;104039.75;5088776;28;20040;-70
2022/01/18 10:15:02;;;;;;;10.93;5.47;;;;;;;8.47;80.80;104027.78;5088279;28;20027;-70
2022/01/18 10:17:33;;;;;;;14.20;5.57;;;;;;;8.38;81.77;104038.47;5089381;28;20057;-69
2022/01/18 10:20:15;;;;;;;12.18;6.50;;;;;;;8.32;81.58;104023.78;5088542;28;20400;-70
2022/01/18 10:22:42;;;;;;;19.38;7.30;;;;;;;8.32;81.85;104026.44;5072721;28;20054;-70
2022/01/18 10:25:26;;;;;;;11.02;5.88;;;;;;;8.33;81.52;104024.63;5088288;28;20560;-69
2022/01/18 10:27:55;;;;;;;12.00;6.88;;;;;;;8.37;81.78;104032.25;5087653;28;20341;-71
2022/01/18 10:30:33;;;;;;;28.58;7.35;;;;;;;8.34;82.30;104029.00;5074597;28;20523;-70
2022/01/18 10:33:17;;;;;;;8.32;4.55;;;;;;;8.61;81.32;104027.44;5090447;28;20020;-70
2022/01/18 10:36:11;;;;;;;9.93;5.80;;;;;;;8.75;79.93;104024.41;5088166;28;20051;-69
2022/01/18 10:38:41;;;;;;;10.18;4.78;;;;;;;8.52;79.36;104030.06;5084650;28;20047;-70
2022/01/18 10:41:28;;;;;;;9.55;4.18;;;;;;;8.68;79.34;104031.28;5079754;28;20403;-71
2022/01/18 10:44:04;;;;;;;11.15;5.28;;;;;;;8.66;79.05;104027.91;5080517;28;20047;-70
2022/01/18 10:46:36;;;;;;;11.95;5.15;;;;;;;8.80;79.42;104034.72;5088809;28;20032;-70
2022/01/18 10:49:02;;;;;;;10.60;5.38;;;;;;;8.50;79.80;104032.03;5094642;28;20040;-71
2022/01/18 10:51:29;;;;;;;10.45;5.80;;;;;;;8.63;79.48;104030.84;5100582;28;20032;-69
2022/01/18 10:54:03;;;;;;;11.68;5.65;;;;;;;8.66;79.17;104027.91;5090238;28;20039;-70
2022/01/18 10:56:47;;;;;;;9.52;5.38;;;;;;;8.45;79.80;104026.25;5090401;28;20055;-70
2022/01/18 10:59:25;;;;;;;15.32;7.07;;;;;;;8.42;80.43;104022.00;5089889;28;20068;-71
2022/01/18 11:02:13;;;;;;;12.93;6.63;;;;;;;8.45;80.62;104016.34;5089942;28;20054;-71
2022/01/18 11:04:45;;;;;;;7.75;5.95;;;;;;;8.56;80.23;104005.56;5089480;28;20051;-70
2022/01/18 11:07:12;;;;;;;14.30;6.68;;;;;;;8.48;80.66;104012.56;5089556;28;20134;-70
2022/01/18 11:09:38;;;;;;;9.20;7.18;;;;;;;8.49;80.85;104012.41;5094659;28;20028;-70
2022/01/18 11:12:05;;;;;;;11.30;6.38;;;;;;;8.41;81.10;104003.38;5098161;28;20015;-71
2022/01/18 11:14:32;;;;;;;19.35;6.57;;;;;;;8.41;81.17;103998.00;5095408;28;20047;-70
2022/01/18 11:16:59;;;;;;;12.82;6.47;;;;;;;8.73;80.31;103996.88;5088558;28;20080;-71
2022/01/18 11:21:53;;;;;;;13.43;5.55;;;;;;;8.60;80.06;103987.38;5098896;28;20452;-70
2022/01/18 11:24:20;;;;;;;11.38;6.38;;;;;;;8.69;79.67;103992.75;5096532;28;20084;-70
2022/01/18 11:26:46;;;;;;;13.27;6.30;;;;;;;8.44;81.10;103995.06;5098455;28;20471;-70
2022/01/18 11:29:16;;;;;;;15.82;6.82;;;;;;;8.28;81.14;104000.91;5103515;28;20032;-70
2022/01/18 11:31:44;;;;;;;10.45;5.55;;;;;;;8.32;80.49;103999.66;5098409;28;20379;-70
2022/01/18 11:34:13;;;;;;;14.23;6.55;;;;;;;8.33;81.16;104003.19;5100417;28;20040;-70
2022/01/18 11:36:46;;;;;;;15.38;6.28;;;;;;;8.54;80.81;104001.31;5098122;28;20062;-69
2022/01/18 11:39:12;;;;;;;13.23;6.38;;;;;;;8.50;80.74;104002.56;5100164;28;20062;-70
2022/01/18 11:41:38;;;;;;;14.50;5.93;;;;;;;8.72;79.87;104005.91;5096456;28;20494;-70
2022/01/18 11:44:16;;;;;;;13.35;5.85;;;;;;;8.52;80.63;104008.63;5093689;28;20500;-70
2022/01/18 11:46:45;;;;;;;10.07;5.82;;;;;;;8.63;80.02;104003.16;5092608;28;20028;-71
2022/01/18 11:49:30;;;;;;;14.63;6.18;;;;;;;8.48;80.31;103999.16;5100971;28;20032;-69
2022/01/18 11:52:09;;;;;;;8.68;5.05;;;;;;;8.15;80.81;104010.97;5099800;28;20031;-71
2022/01/18 11:57:23;;;;;;;12.77;4.70;;;;;;;7.88;81.69;104002.59;5082156;28;20072;-70
2022/01/18 11:59:54;;;;;;;15.20;5.60;;;;;;;8.11;80.58;103995.28;5074483;28;20032;-71
2022/01/18 12:02:25;;;;;;;12.02;5.97;;;;;;;8.24;80.61;104001.25;5091071;28;20047;-69
2022/01/18 12:04:54;;;;;;;10.90;5.47;;;;;;;8.49;80.19;104011.59;5090019;28;20051;-71
2022/01/18 12:07:38;;;;;;;11.63;6.88;;;;;;;8.51;80.24;104006.94;5090849;28;20032;-69
2022/01/18 12:10:27;;;;;;;13.15;6.68;;;;;;;8.25;80.34;104005.69;5090093;28;20502;-70
2022/01/18 12:12:55;;;;;;;11.50;6.10;;;;;;;8.29;80.50;104004.44;5090806;28;20455;-72
2022/01/18 12:15:23;;;;;;;8.32;5.70;;;;;;;8.39;79.97;104005.34;5090499;28;20047;-70
2022/01/18 12:17:50;;;;;;;9.57;5.30;;;;;;;8.21;79.84;104006.91;5089224;28;20084;-70
2022/01/18 12:20:33;;;;;;;9.88;5.38;;;;;;;8.21;80.04;104002.41;5090816;28;20059;-70
2022/01/18 12:23:03;;;;;;;12.18;5.75;;;;;;;7.95;80.25;104009.13;5088615;28;20376;-70
2022/01/18 12:25:31;;;;;;;15.82;6.00;;;;;;;8.27;79.79;104009.06;5087876;28;20128;-70
2022/01/18 12:28:01;;;;;;;9.73;5.47;;;;;;;8.26;79.38;104004.69;5088002;28;20051;-69
2022/01/18 12:30:42;;;;;;;12.50;6.40;;;;;;;8.06;79.22;103989.47;5090729;28;20036;-70
2022/01/18 12:33:20;;;;;;;11.73;6.05;;;;;;;7.98;80.16;103982.94;5087756;28;20429;-71
2022/01/18 12:35:47;;;;;;;12.80;7.55;;;;;;;7.54;81.32;103987.69;5089646;28;20028;-70
2022/01/18 12:38:23;;;;;;;12.77;7.47;;;;;;;7.75;81.21;103984.03;5088694;28;20032;-70
2022/01/18 12:40:49;;;;;;;14.40;8.15;;;;;;;7.94;81.01;103984.16;5087538;28;20032;-70
2022/01/18 12:46:02;;;;;;;16.05;8.43;;;;;;;8.12;80.91;103984.41;5094129;28;20514;-69
2022/01/18 12:48:30;;;;;;;18.40;8.55;;;;;;;8.27;80.49;103967.06;5098934;28;20028;-71
2022/01/18 12:50:58;;;;;;;20.15;9.88;;;;;;;8.41;80.45;103965.84;5101570;28;20016;-71
2022/01/18 12:53:27;;;;;;;27.48;9.77;;;;;;;8.37;80.46;103957.22;5098888;28;20034;-70
2022/01/18 12:56:02;;;;;;;16.15;9.32;;;;;;;8.37;80.11;103964.44;5091496;28;20070;-71
2022/01/18 12:58:38;;;;;;;21.08;9.68;;;;;;;8.51;79.77;103969.44;5095651;28;20039;-70